Time;durP1;ratioP1;P1;durP2;ratioP2;P2;SDS_P1;SDS_P2;PMS_P1;PMS_P2;Temp;Humidity;BMP_temperature;BMP_pressure;BME280_temperature;BME280_humidity;BME280_pressure;Samples;Min_cycle;Max_cycle;Signal;HPM_P1;HPM_P2
2021/05/05 00:00:25;;;;;;;10.85;8.65;;;18.50;93.60;;;;;;4961085;28;20077;-53
2021/05/05 00:02:53;;;;;;;7.50;5.95;;;18.60;93.70;;;;;;4970318;28;20059;-52
2021/05/05 00:05:21;;;;;;;10.25;4.60;;;18.60;94.20;;;;;;4957396;28;20023;-51
2021/05/05 00:07:49;;;;;;;9.63;6.90;;;18.60;94.30;;;;;;4948548;28;20026;-51
2021/05/05 00:10:17;;;;;;;10.85;5.93;;;18.60;94.20;;;;;;4960996;28;20134;-52
2021/05/05 00:12:45;;;;;;;8.68;5.70;;;18.60;94.30;;;;;;4950086;28;20039;-55
2021/05/05 00:15:19;;;;;;;14.88;11.38;;;18.60;95.00;;;;;;4953363;28;20070;-53
2021/05/05 00:17:47;;;;;;;11.35;10.15;;;18.50;94.90;;;;;;4954184;28;20086;-52
2021/05/05 00:20:15;;;;;;;12.50;11.20;;;18.50;94.10;;;;;;4961248;28;20057;-52
2021/05/05 00:22:43;;;;;;;19.30;17.20;;;18.60;94.50;;;;;;4947879;29;20034;-46
2021/05/05 00:25:12;;;;;;;10.27;8.82;;;18.70;94.00;;;;;;4965849;28;20031;-53
2021/05/05 00:27:39;;;;;;;12.18;9.32;;;18.70;94.30;;;;;;4957068;28;20173;-53
2021/05/05 00:30:09;;;;;;;12.30;10.30;;;18.70;94.80;;;;;;4958199;28;20039;-59
2021/05/05 00:32:37;;;;;;;21.27;19.35;;;18.90;93.90;;;;;;4975548;28;20049;-55
2021/05/05 00:35:06;;;;;;;15.73;14.30;;;18.90;94.00;;;;;;4962007;28;20043;-56
2021/05/05 00:37:34;;;;;;;7.47;6.07;;;19.00;93.70;;;;;;4957890;28;20026;-54
2021/05/05 00:40:02;;;;;;;9.38;5.95;;;19.00;94.20;;;;;;4939244;29;20386;-56
2021/05/05 00:42:30;;;;;;;12.05;10.00;;;18.90;94.70;;;;;;4960376;28;20031;-52
2021/05/05 00:45:03;;;;;;;12.10;10.90;;;19.00;94.30;;;;;;4975306;28;20023;-56
2021/05/05 00:47:31;;;;;;;9.43;4.10;;;19.10;93.90;;;;;;4957514;28;20030;-55
2021/05/05 00:49:58;;;;;;;13.27;6.95;;;19.00;94.90;;;;;;4967171;28;20110;-54
2021/05/05 00:52:27;;;;;;;19.05;13.80;;;19.10;94.30;;;;;;4965015;28;20035;-55
2021/05/05 00:54:54;;;;;;;11.00;4.53;;;19.20;93.20;;;;;;4960311;28;20536;-54
2021/05/05 00:57:23;;;;;;;8.57;2.88;;;19.20;94.50;;;;;;4962657;28;20126;-57
2021/05/05 00:59:50;;;;;;;12.05;9.73;;;19.20;93.80;;;;;;4963395;28;20062;-55
2021/05/05 01:02:18;;;;;;;17.00;3.83;;;19.30;93.90;;;;;;4969410;28;20043;-56
2021/05/05 01:04:45;;;;;;;11.75;8.10;;;19.40;94.00;;;;;;4956409;28;20446;-52
2021/05/05 01:07:13;;;;;;;8.93;5.40;;;19.50;93.30;;;;;;4972656;28;20081;-57
2021/05/05 01:09:44;;;;;;;8.77;2.53;;;19.50;93.20;;;;;;4961088;28;20039;-56
2021/05/05 01:12:13;;;;;;;9.07;3.97;;;19.50;93.30;;;;;;4966043;28;20413;-56
2021/05/05 01:14:41;;;;;;;12.18;9.60;;;19.50;93.30;;;;;;4937076;29;20059;-57
2021/05/05 01:17:09;;;;;;;15.50;7.40;;;19.50;93.20;;;;;;4953767;28;20031;-58
2021/05/05 01:19:36;;;;;;;11.65;4.95;;;19.60;93.30;;;;;;4955732;28;20031;-56
2021/05/05 01:22:04;;;;;;;10.18;4.95;;;19.60;93.50;;;;;;4969232;28;20069;-56
2021/05/05 01:24:35;;;;;;;9.20;7.75;;;19.60;93.20;;;;;;4960027;28;20382;-53
2021/05/05 01:27:06;;;;;;;10.88;7.00;;;19.70;93.10;;;;;;4956427;28;20027;-46
2021/05/05 01:29:36;;;;;;;7.18;6.07;;;19.80;92.90;;;;;;4971765;28;20031;-45
2021/05/05 01:32:05;;;;;;;11.90;6.15;;;20.00;92.80;;;;;;4960770;28;20042;-45
2021/05/05 01:34:34;;;;;;;13.63;7.20;;;20.00;92.60;;;;;;4955153;28;20027;-44
2021/05/05 01:37:02;;;;;;;15.57;6.57;;;20.00;92.80;;;;;;4973515;28;20019;-43
2021/05/05 01:39:29;;;;;;;13.70;6.10;;;20.00;93.00;;;;;;4971847;28;20489;-46
2021/05/05 01:41:58;;;;;;;15.57;4.68;;;20.00;93.00;;;;;;4954088;28;20113;-49
2021/05/05 01:44:40;;;;;;;8.43;4.85;;;19.90;93.10;;;;;;4954952;29;20114;-49
2021/05/05 01:47:11;;;;;;;9.90;4.40;;;19.90;93.40;;;;;;4970574;28;20054;-48
2021/05/05 01:49:48;;;;;;;10.00;3.93;;;19.90;93.50;;;;;;4972212;28;20061;-44
2021/05/05 01:52:19;;;;;;;5.97;3.10;;;19.90;93.40;;;;;;4949279;28;20186;-42
2021/05/05 01:54:47;;;;;;;9.60;3.40;;;20.00;93.70;;;;;;4969263;28;20032;-47
2021/05/05 01:57:32;;;;;;;8.90;3.30;;;20.00;93.80;;;;;;4966265;28;20027;-43
2021/05/05 02:00:02;;;;;;;19.02;3.30;;;20.00;93.80;;;;;;4935040;28;20039;-39
2021/05/05 02:02:31;;;;;;;11.43;3.08;;;20.00;94.30;;;;;;4956250;28;20515;-39
2021/05/05 02:04:59;;;;;;;6.78;3.20;;;20.00;94.30;;;;;;4956795;28;20178;-53
2021/05/05 02:07:26;;;;;;;7.00;2.65;;;20.00;94.10;;;;;;4960376;28;20031;-54
2021/05/05 02:09:54;;;;;;;9.20;3.22;;;20.00;93.90;;;;;;4948561;29;20133;-54
2021/05/05 02:12:22;;;;;;;12.80;3.13;;;20.00;93.80;;;;;;4938068;28;20130;-55
2021/05/05 02:14:50;;;;;;;9.25;3.42;;;20.00;93.70;;;;;;4936232;29;20027;-52
2021/05/05 02:17:18;;;;;;;8.30;4.25;;;20.00;93.50;;;;;;4957230;28;20482;-56
2021/05/05 02:19:45;;;;;;;9.55;5.25;;;20.00;93.40;;;;;;4949625;28;20512;-51
2021/05/05 02:22:13;;;;;;;10.63;5.32;;;20.00;93.30;;;;;;4971209;28;20409;-54
2021/05/05 02:24:40;;;;;;;9.20;5.68;;;20.00;93.20;;;;;;4955224;28;20078;-55
2021/05/05 02:27:08;;;;;;;10.27;5.65;;;19.90;93.20;;;;;;4955337;28;20038;-55
2021/05/05 02:29:36;;;;;;;9.32;5.13;;;20.00;93.20;;;;;;4960231;28;20059;-54
2021/05/05 02:32:15;;;;;;;8.82;5.95;;;19.90;93.20;;;;;;4957599;28;20039;-54
2021/05/05 02:34:42;;;;;;;9.18;5.30;;;19.90;93.20;;;;;;4957637;28;20078;-54
2021/05/05 02:37:11;;;;;;;11.55;6.13;;;20.00;93.20;;;;;;4961350;28;20027;-54
2021/05/05 02:39:43;;;;;;;12.30;5.80;;;19.90;93.20;;;;;;4942568;28;20390;-53
2021/05/05 02:42:15;;;;;;;9.80;5.80;;;19.90;93.20;;;;;;4958464;28;20529;-55
2021/05/05 02:44:48;;;;;;;6.93;5.93;;;19.90;93.20;;;;;;4953722;28;20046;-57
2021/05/05 02:47:18;;;;;;;9.02;6.70;;;19.90;93.20;;;;;;4953090;29;20059;-52
2021/05/05 02:49:46;;;;;;;13.85;8.00;;;20.00;93.20;;;;;;4936299;28;20039;-54
2021/05/05 02:52:13;;;;;;;9.95;7.05;;;20.00;93.70;;;;;;4952429;29;20032;-56
2021/05/05 02:54:41;;;;;;;8.98;6.88;;;20.00;93.10;;;;;;4953437;28;20051;-55
2021/05/05 02:57:08;;;;;;;10.85;8.25;;;20.10;92.90;;;;;;4964612;28;20131;-58
2021/05/05 02:59:36;;;;;;;10.88;8.18;;;20.10;92.80;;;;;;4961296;28;20058;-55
2021/05/05 03:02:05;;;;;;;9.52;7.13;;;20.10;92.70;;;;;;4932419;28;20548;-56
2021/05/05 03:04:32;;;;;;;10.18;7.72;;;20.10;92.60;;;;;;4953304;28;20118;-50
2021/05/05 03:06:59;;;;;;;9.43;8.50;;;20.10;92.50;;;;;;4955213;28;20038;-60
2021/05/05 03:09:28;;;;;;;10.95;8.27;;;20.10;92.50;;;;;;4963415;28;20023;-53
2021/05/05 03:12:01;;;;;;;14.25;10.38;;;20.10;92.50;;;;;;4958153;28;20054;-49
2021/05/05 03:14:30;;;;;;;14.73;10.18;;;20.10;92.50;;;;;;4953242;29;20035;-57
2021/05/05 03:17:01;;;;;;;10.52;8.60;;;20.10;92.50;;;;;;4955156;28;20594;-53
2021/05/05 03:19:28;;;;;;;13.10;9.13;;;20.10;92.50;;;;;;4954374;28;20551;-49
2021/05/05 03:21:56;;;;;;;12.18;8.90;;;20.10;92.50;;;;;;4935075;28;20434;-49
2021/05/05 03:24:24;;;;;;;12.48;8.85;;;20.10;92.40;;;;;;4963063;28;20042;-45
2021/05/05 03:26:51;;;;;;;9.88;8.43;;;20.10;92.50;;;;;;4955108;28;20035;-54
2021/05/05 03:29:18;;;;;;;9.77;8.52;;;20.10;92.40;;;;;;4956634;28;20041;-57
2021/05/05 03:31:46;;;;;;;14.57;9.30;;;20.10;92.40;;;;;;4954595;28;20038;-50
2021/05/05 03:34:14;;;;;;;8.43;7.72;;;20.10;92.30;;;;;;4949754;29;20027;-53
2021/05/05 03:36:42;;;;;;;10.95;8.30;;;20.20;92.30;;;;;;4955547;28;20034;-56
2021/05/05 03:39:09;;;;;;;9.10;8.18;;;20.20;92.20;;;;;;4955991;28;20028;-50
2021/05/05 03:41:37;;;;;;;11.05;8.52;;;20.20;92.20;;;;;;4949282;28;20027;-50
2021/05/05 03:44:06;;;;;;;11.95;7.68;;;20.20;92.20;;;;;;4952470;29;20140;-56
2021/05/05 03:46:34;;;;;;;12.63;7.55;;;20.20;92.20;;;;;;4947111;28;20500;-54
2021/05/05 03:49:01;;;;;;;8.13;7.32;;;20.20;92.10;;;;;;4957714;28;20034;-55
2021/05/05 03:51:29;;;;;;;9.43;7.50;;;20.20;92.10;;;;;;4952067;28;20412;-51
2021/05/05 03:53:56;;;;;;;9.57;7.55;;;20.30;92.10;;;;;;4966111;28;20038;-52
2021/05/05 03:56:24;;;;;;;8.65;7.80;;;20.30;92.40;;;;;;4965929;28;20523;-54
2021/05/05 03:58:51;;;;;;;9.48;7.10;;;20.40;92.60;;;;;;4962850;28;20038;-51
2021/05/05 04:01:18;;;;;;;8.27;6.43;;;20.40;92.40;;;;;;4974208;28;20035;-55
2021/05/05 04:03:46;;;;;;;9.88;6.32;;;20.50;92.70;;;;;;4945927;28;20075;-53
2021/05/05 04:06:13;;;;;;;10.95;7.13;;;20.60;92.00;;;;;;4965238;28;20039;-58
2021/05/05 04:08:41;;;;;;;9.52;6.60;;;20.70;91.90;;;;;;4970819;28;20082;-59
2021/05/05 04:11:08;;;;;;;9.30;5.70;;;20.70;92.00;;;;;;4962715;28;20129;-56
2021/05/05 04:13:35;;;;;;;11.68;6.18;;;20.80;92.00;;;;;;4966408;28;20134;-60
2021/05/05 04:16:03;;;;;;;8.05;6.72;;;21.00;91.90;;;;;;4972634;28;20033;-51
2021/05/05 04:18:30;;;;;;;6.93;5.45;;;21.10;91.30;;;;;;4972472;28;20031;-56
2021/05/05 04:21:03;;;;;;;7.82;5.13;;;21.20;91.10;;;;;;4967638;28;20031;-54
2021/05/05 04:23:33;;;;;;;8.18;5.05;;;21.30;90.30;;;;;;4971834;28;20114;-59
2021/05/05 04:26:01;;;;;;;10.10;6.82;;;21.30;90.40;;;;;;4958318;28;20420;-60
2021/05/05 04:28:28;;;;;;;9.32;6.20;;;21.30;89.50;;;;;;4964273;28;20023;-58
2021/05/05 04:30:56;;;;;;;10.00;6.60;;;21.30;89.40;;;;;;4970908;28;20043;-56
2021/05/05 04:33:24;;;;;;;6.97;6.28;;;21.30;89.80;;;;;;4958351;28;20027;-57
2021/05/05 04:35:51;;;;;;;5.78;5.18;;;21.30;89.70;;;;;;4957966;28;20026;-61
2021/05/05 04:38:19;;;;;;;6.97;5.07;;;21.30;90.00;;;;;;4968328;28;20030;-50
2021/05/05 04:40:49;;;;;;;7.22;5.45;;;21.30;89.20;;;;;;4950212;28;20096;-50
2021/05/05 04:43:16;;;;;;;11.07;6.45;;;21.30;89.20;;;;;;4972550;28;20473;-52
2021/05/05 04:45:43;;;;;;;6.88;5.07;;;21.30;89.60;;;;;;4971842;28;20027;-53
2021/05/05 04:48:12;;;;;;;6.93;5.00;;;21.30;90.00;;;;;;4956189;28;20031;-53
2021/05/05 04:50:39;;;;;;;8.75;5.15;;;21.20;89.50;;;;;;4963377;28;20046;-58
2021/05/05 04:53:08;;;;;;;6.90;5.75;;;21.20;89.20;;;;;;4971568;28;20027;-51
2021/05/05 04:55:36;;;;;;;6.93;4.60;;;21.10;89.30;;;;;;4956607;28;20497;-57
2021/05/05 04:58:03;;;;;;;5.13;4.30;;;21.10;89.80;;;;;;4971425;28;20124;-56
2021/05/05 05:00:31;;;;;;;7.03;5.28;;;21.10;89.40;;;;;;4972191;28;20037;-57
2021/05/05 05:02:58;;;;;;;4.38;3.97;;;21.10;89.60;;;;;;4972232;28;20089;-56
2021/05/05 05:05:26;;;;;;;10.40;4.63;;;21.00;89.60;;;;;;4969231;28;20034;-57
2021/05/05 05:07:58;;;;;;;7.25;4.22;;;21.00;90.00;;;;;;4966561;28;20037;-56
2021/05/05 05:10:25;;;;;;;5.72;4.65;;;20.90;90.10;;;;;;4946781;28;20043;-51
2021/05/05 05:12:54;;;;;;;6.00;4.13;;;20.90;90.10;;;;;;4957175;28;20433;-55
2021/05/05 05:15:22;;;;;;;6.10;4.70;;;20.90;90.10;;;;;;4959502;28;20048;-54
2021/05/05 05:17:49;;;;;;;5.35;4.20;;;20.90;90.10;;;;;;4961888;28;20035;-55
2021/05/05 05:20:16;;;;;;;5.88;4.00;;;20.90;90.20;;;;;;4955369;28;20138;-52
2021/05/05 05:22:44;;;;;;;7.18;4.32;;;20.80;90.20;;;;;;4960190;28;20082;-49
2021/05/05 05:25:12;;;;;;;6.32;4.30;;;20.80;90.20;;;;;;4958526;28;20042;-55
2021/05/05 05:27:40;;;;;;;5.25;4.30;;;20.80;90.30;;;;;;4952588;28;20413;-51
2021/05/05 05:30:08;;;;;;;5.35;4.22;;;20.80;90.80;;;;;;4952361;28;20167;-57
2021/05/05 05:32:36;;;;;;;6.97;4.82;;;20.90;90.90;;;;;;4960778;28;20101;-51
2021/05/05 05:35:04;;;;;;;5.60;4.68;;;20.90;90.60;;;;;;4959923;28;20032;-53
2021/05/05 05:37:32;;;;;;;4.65;3.63;;;20.90;90.40;;;;;;4965794;28;20038;-51
2021/05/05 05:40:02;;;;;;;5.43;3.85;;;20.90;90.30;;;;;;4956207;28;20058;-48
2021/05/05 05:42:30;;;;;;;4.95;3.80;;;20.90;90.20;;;;;;4957864;28;20136;-50
2021/05/05 05:44:57;;;;;;;7.28;4.47;;;20.90;90.20;;;;;;4948444;28;20035;-54
2021/05/05 05:47:24;;;;;;;4.40;3.65;;;20.90;90.20;;;;;;4958199;28;20085;-53
2021/05/05 05:49:52;;;;;;;10.35;4.90;;;20.80;90.20;;;;;;4948286;28;20023;-56
2021/05/05 05:52:20;;;;;;;4.53;4.13;;;20.90;90.20;;;;;;4957968;28;20046;-53
2021/05/05 05:54:47;;;;;;;5.32;4.30;;;20.80;90.20;;;;;;4958024;28;20357;-53
2021/05/05 05:57:16;;;;;;;7.22;4.13;;;20.80;90.30;;;;;;4957460;28;20355;-48
2021/05/05 05:59:44;;;;;;;4.60;3.65;;;20.80;90.30;;;;;;4949107;28;20023;-56
2021/05/05 06:02:12;;;;;;;5.95;3.70;;;20.80;90.40;;;;;;4957093;28;20090;-55
2021/05/05 06:04:39;;;;;;;4.10;3.63;;;20.80;90.70;;;;;;4956374;28;20434;-58
2021/05/05 06:07:07;;;;;;;5.22;4.07;;;20.70;90.40;;;;;;4958598;28;20039;-57
2021/05/05 06:09:34;;;;;;;4.90;3.22;;;20.70;90.50;;;;;;4956789;28;20508;-57
2021/05/05 06:12:01;;;;;;;4.03;3.28;;;20.70;90.50;;;;;;4956329;28;20046;-57
2021/05/05 06:14:29;;;;;;;5.70;3.75;;;20.70;90.50;;;;;;4954060;28;20046;-58
2021/05/05 06:16:56;;;;;;;4.32;3.90;;;20.70;90.50;;;;;;4964864;28;20109;-53
2021/05/05 06:19:23;;;;;;;4.85;4.05;;;20.70;90.60;;;;;;4964716;28;20596;-52
2021/05/05 06:21:51;;;;;;;5.93;2.10;;;20.70;90.60;;;;;;4968517;28;20031;-54
2021/05/05 06:24:18;;;;;;;5.93;2.25;;;20.60;91.30;;;;;;4971875;28;20133;-53
2021/05/05 06:26:45;;;;;;;4.30;2.00;;;20.40;91.60;;;;;;4971642;28;20035;-54
2021/05/05 06:29:13;;;;;;;10.23;3.25;;;20.20;92.40;;;;;;4967855;28;20019;-54
2021/05/05 06:31:40;;;;;;;8.25;3.70;;;20.10;92.60;;;;;;4954964;28;20090;-50
2021/05/05 06:34:08;;;;;;;6.97;3.10;;;20.10;92.30;;;;;;4952745;28;20074;-60
2021/05/05 06:36:35;;;;;;;9.68;3.38;;;20.00;93.00;;;;;;4961603;28;20039;-57
2021/05/05 06:39:07;;;;;;;14.23;5.35;;;20.00;92.30;;;;;;4963040;28;20558;-51
2021/05/05 06:41:38;;;;;;;;;;;20.00;92.50;;;;;;4972899;28;20381;-61
2021/05/05 06:44:08;;;;;;;13.18;8.25;;;19.90;92.80;;;;;;4959668;28;21446;-57
2021/05/05 06:46:42;;;;;;;8.95;3.72;;;20.00;92.70;;;;;;4954643;29;20015;-54
2021/05/05 06:49:15;;;;;;;8.98;4.20;;;19.90;93.20;;;;;;4971689;28;20034;-58
2021/05/05 06:51:43;;;;;;;15.93;6.72;;;19.90;93.30;;;;;;4960358;28;20042;-53
2021/05/05 06:54:10;;;;;;;14.20;9.90;;;20.00;93.10;;;;;;4971333;28;20030;-44
2021/05/05 06:56:38;;;;;;;20.60;14.00;;;20.00;93.00;;;;;;4958745;28;20125;-50
2021/05/05 06:59:05;;;;;;;16.35;12.23;;;20.10;92.60;;;;;;4959387;28;20039;-50
2021/05/05 07:01:35;;;;;;;25.73;20.40;;;20.20;92.50;;;;;;4954420;28;20027;-47
2021/05/05 07:04:04;;;;;;;18.40;10.43;;;20.20;92.50;;;;;;4972131;28;20039;-49
2021/05/05 07:06:31;;;;;;;23.67;19.58;;;20.20;92.40;;;;;;4959652;28;20031;-49
2021/05/05 07:08:59;;;;;;;23.42;18.25;;;20.20;92.40;;;;;;4954492;28;20110;-50
2021/05/05 07:11:28;;;;;;;28.67;25.42;;;20.30;92.60;;;;;;4968443;28;20030;-49
2021/05/05 07:13:55;;;;;;;26.50;21.05;;;20.30;92.80;;;;;;4972277;28;20066;-44
2021/05/05 07:16:23;;;;;;;25.25;22.13;;;20.30;92.80;;;;;;4973048;28;20100;-45
2021/05/05 07:18:50;;;;;;;30.75;27.40;;;20.40;92.90;;;;;;4972501;28;20362;-47
2021/05/05 07:21:17;;;;;;;17.73;15.75;;;20.40;93.00;;;;;;4971303;28;20173;-47
2021/05/05 07:23:47;;;;;;;16.40;11.43;;;20.40;93.10;;;;;;4969990;28;20398;-48
2021/05/05 07:26:15;;;;;;;15.48;10.00;;;20.40;93.20;;;;;;4971218;28;20082;-43
2021/05/05 07:28:43;;;;;;;12.60;8.30;;;20.50;93.20;;;;;;4976556;28;20597;-49
2021/05/05 07:31:10;;;;;;;13.77;6.95;;;20.50;93.20;;;;;;4976572;28;20043;-50
2021/05/05 07:33:38;;;;;;;13.65;6.60;;;20.50;93.20;;;;;;4976758;28;20022;-47
2021/05/05 07:36:20;;;;;;;11.63;5.78;;;20.50;93.00;;;;;;4965945;28;20050;-49
2021/05/05 07:49:24;;;;;;;14.52;5.72;;;20.50;93.40;;;;;;4964208;28;20322;-45
2021/05/05 07:51:52;;;;;;;18.05;4.85;;;20.50;93.40;;;;;;4975998;28;20059;-47
2021/05/05 07:54:21;;;;;;;20.20;4.97;;;20.50;93.30;;;;;;4975446;28;20453;-47
2021/05/05 07:56:49;;;;;;;21.00;5.43;;;20.50;93.40;;;;;;4957030;29;20027;-44
2021/05/05 07:59:16;;;;;;;19.48;5.00;;;20.50;93.40;;;;;;4955434;29;20024;-47
2021/05/05 08:01:44;;;;;;;21.70;4.85;;;20.50;93.30;;;;;;4956058;29;20023;-44
2021/05/05 08:04:11;;;;;;;28.27;4.38;;;20.50;93.30;;;;;;4956302;29;20030;-49
2021/05/05 08:06:38;;;;;;;14.13;3.92;;;20.60;93.00;;;;;;4955413;29;20041;-52
2021/05/05 08:09:06;;;;;;;8.43;2.90;;;20.50;92.80;;;;;;4957076;29;20031;-46
2021/05/05 08:11:33;;;;;;;8.88;3.00;;;20.40;93.00;;;;;;4956317;29;20109;-46
2021/05/05 08:14:00;;;;;;;7.22;2.67;;;20.40;93.10;;;;;;4956277;29;20035;-47
2021/05/05 08:16:28;;;;;;;6.90;2.38;;;20.30;92.70;;;;;;4950450;29;20035;-47
2021/05/05 08:18:55;;;;;;;9.38;2.55;;;20.30;92.70;;;;;;4952372;28;20031;-46
2021/05/05 08:21:24;;;;;;;7.28;2.53;;;20.30;92.90;;;;;;4963741;28;20030;-45
2021/05/05 08:23:51;;;;;;;9.75;2.90;;;20.30;92.90;;;;;;4954303;28;20027;-42
2021/05/05 08:26:19;;;;;;;11.68;2.80;;;20.20;92.90;;;;;;4961718;28;20026;-45
2021/05/05 08:28:47;;;;;;;6.43;2.03;;;20.20;92.90;;;;;;4954924;29;20082;-47
2021/05/05 08:31:14;;;;;;;5.40;1.90;;;20.20;93.10;;;;;;4970649;28;20497;-45
2021/05/05 08:33:42;;;;;;;9.15;2.40;;;20.20;93.30;;;;;;4964053;28;20031;-49
2021/05/05 08:36:09;;;;;;;7.50;1.98;;;20.20;93.40;;;;;;4974474;28;20034;-51
2021/05/05 08:38:37;;;;;;;5.88;2.63;;;20.20;93.30;;;;;;4962233;28;20030;-48
2021/05/05 08:41:05;;;;;;;8.15;2.33;;;20.20;93.50;;;;;;4974449;28;20030;-50
2021/05/05 08:43:33;;;;;;;7.03;2.33;;;20.20;93.50;;;;;;4975684;28;20054;-45
2021/05/05 08:46:04;;;;;;;9.65;2.10;;;20.20;93.40;;;;;;4963291;28;20102;-47
2021/05/05 08:48:31;;;;;;;13.25;3.53;;;20.20;93.60;;;;;;4946237;29;20051;-48
2021/05/05 08:51:00;;;;;;;6.72;2.75;;;20.30;93.70;;;;;;4954570;28;20389;-43
2021/05/05 08:53:27;;;;;;;12.23;3.25;;;20.30;93.80;;;;;;4956039;28;20042;-50
2021/05/05 08:55:54;;;;;;;14.15;2.83;;;20.30;93.90;;;;;;4967149;28;20031;-43
2021/05/05 08:58:22;;;;;;;7.30;2.70;;;20.30;93.90;;;;;;4967203;28;20450;-41
2021/05/05 09:00:49;;;;;;;11.13;3.78;;;20.30;94.00;;;;;;4956176;28;20035;-46
2021/05/05 09:03:16;;;;;;;6.95;2.70;;;20.30;94.00;;;;;;4965798;28;20066;-40
2021/05/05 09:05:50;;;;;;;12.43;3.60;;;20.30;94.20;;;;;;4973992;28;20038;-49
2021/05/05 09:08:18;;;;;;;12.50;3.22;;;20.40;94.70;;;;;;4971775;28;20426;-49
2021/05/05 09:10:59;;;;;;;13.45;4.40;;;20.40;94.70;;;;;;4955674;28;20409;-43
2021/05/05 09:13:51;;;;;;;8.52;3.55;;;20.40;94.50;;;;;;4954412;28;20022;-57
2021/05/05 09:16:31;;;;;;;20.90;10.73;;;20.50;94.60;;;;;;4935441;28;20118;-55
2021/05/05 09:19:11;;;;;;;22.20;15.20;;;20.50;94.50;;;;;;4955443;28;20608;-56
2021/05/05 09:21:44;;;;;;;22.67;8.52;;;20.50;94.70;;;;;;4954117;28;20041;-56
2021/05/05 09:24:14;;;;;;;20.02;14.45;;;20.60;94.90;;;;;;4953759;28;20024;-58
2021/05/05 09:26:42;;;;;;;15.82;6.90;;;20.60;95.00;;;;;;4940893;28;20475;-52
2021/05/05 09:29:10;;;;;;;20.15;16.48;;;20.70;94.70;;;;;;4952087;28;20034;-50
2021/05/05 09:31:40;;;;;;;13.15;4.68;;;20.60;94.50;;;;;;4953852;28;20085;-52
2021/05/05 09:34:10;;;;;;;26.55;13.20;;;20.70;95.00;;;;;;4960528;28;20170;-53
2021/05/05 09:36:55;;;;;;;24.67;17.55;;;20.70;95.20;;;;;;4963888;28;20057;-53
2021/05/05 09:39:31;;;;;;;25.67;10.23;;;20.70;94.60;;;;;;4950426;28;20034;-55
2021/05/05 09:41:59;;;;;;;21.67;17.00;;;20.70;94.30;;;;;;4959225;28;20062;-51
2021/05/05 09:44:27;;;;;;;20.10;13.63;;;20.70;94.00;;;;;;4957052;28;20053;-52
2021/05/05 09:46:58;;;;;;;21.17;13.05;;;20.70;93.90;;;;;;4956402;28;20043;-54
2021/05/05 09:49:34;;;;;;;16.70;7.07;;;20.70;94.00;;;;;;4949331;28;21400;-46
2021/05/05 09:52:05;;;;;;;19.77;7.68;;;20.70;94.20;;;;;;4937026;28;20612;-48
2021/05/05 09:54:42;;;;;;;15.05;8.32;;;20.70;94.60;;;;;;4959270;28;20046;-56
2021/05/05 09:57:19;;;;;;;31.08;23.92;;;20.70;94.70;;;;;;4953967;28;20456;-60
2021/05/05 10:00:12;;;;;;;15.13;10.55;;;20.80;94.50;;;;;;4955490;28;20041;-55
2021/05/05 10:02:55;;;;;;;20.92;11.15;;;20.80;94.30;;;;;;4961157;28;20552;-58
2021/05/05 10:05:27;;;;;;;16.98;7.80;;;20.70;94.60;;;;;;4969123;28;20127;-58
2021/05/05 10:07:57;;;;;;;10.52;5.80;;;20.80;94.70;;;;;;4953788;28;20024;-56
2021/05/05 10:10:28;;;;;;;19.23;5.90;;;20.80;94.40;;;;;;4961679;28;20026;-59
2021/05/05 10:12:57;;;;;;;8.05;4.55;;;20.80;94.80;;;;;;4972170;28;20415;-58
2021/05/05 10:15:27;;;;;;;11.43;3.80;;;20.80;94.30;;;;;;4946558;28;20057;-58
2021/05/05 10:17:55;;;;;;;24.88;5.15;;;20.80;94.50;;;;;;4965254;28;20035;-59
2021/05/05 10:20:28;;;;;;;12.82;4.00;;;20.80;95.00;;;;;;4957242;28;20025;-59
2021/05/05 10:22:58;;;;;;;9.55;3.33;;;20.80;95.30;;;;;;4970876;28;20035;-59
2021/05/05 10:25:26;;;;;;;6.68;2.80;;;20.80;95.40;;;;;;4973488;28;20027;-57
2021/05/05 10:27:54;;;;;;;8.18;2.95;;;20.80;95.30;;;;;;4961041;28;20065;-55
2021/05/05 10:30:35;;;;;;;11.25;3.10;;;20.80;95.40;;;;;;4960898;28;20565;-55
2021/05/05 10:33:04;;;;;;;14.82;3.33;;;20.90;95.60;;;;;;4935081;29;20107;-50
2021/05/05 10:35:31;;;;;;;18.30;3.80;;;20.80;95.50;;;;;;4954385;28;20660;-54
2021/05/05 10:38:00;;;;;;;13.55;3.00;;;20.80;96.20;;;;;;4964667;28;20026;-56
2021/05/05 10:40:38;;;;;;;11.15;3.35;;;20.90;95.80;;;;;;4963581;28;20029;-55
2021/05/05 10:43:07;;;;;;;10.65;3.10;;;20.80;94.90;;;;;;4947961;29;20035;-51
2021/05/05 10:45:43;;;;;;;9.40;2.92;;;20.70;94.50;;;;;;4959760;28;20510;-53
2021/05/05 10:48:14;;;;;;;10.23;5.30;;;20.60;94.40;;;;;;4952882;28;20441;-54
2021/05/05 10:50:52;;;;;;;13.60;5.45;;;20.60;94.60;;;;;;4950980;29;20050;-52
2021/05/05 10:53:26;;;;;;;14.85;5.28;;;20.60;94.30;;;;;;4953696;28;20031;-54
2021/05/05 10:56:00;;;;;;;6.85;3.17;;;20.50;94.20;;;;;;4958419;28;20023;-49
2021/05/05 10:58:30;;;;;;;9.48;4.47;;;20.50;93.80;;;;;;4953873;28;20164;-52
2021/05/05 11:01:02;;;;;;;9.32;4.40;;;20.40;93.70;;;;;;4962932;28;20078;-50
2021/05/05 11:03:49;;;;;;;10.63;7.55;;;20.40;93.60;;;;;;4957035;28;20047;-50
2021/05/05 11:06:32;;;;;;;8.57;4.97;;;20.40;93.60;;;;;;4960412;28;20392;-50
2021/05/05 11:09:12;;;;;;;8.85;4.35;;;20.40;93.60;;;;;;4953452;28;20039;-55
2021/05/05 11:11:41;;;;;;;7.65;4.55;;;20.40;93.50;;;;;;4959504;28;20452;-50
2021/05/05 11:14:09;;;;;;;12.52;5.75;;;20.30;93.50;;;;;;4953013;29;20027;-53
2021/05/05 11:16:58;;;;;;;11.82;7.35;;;20.40;93.40;;;;;;4952480;29;20114;-50
2021/05/05 11:19:37;;;;;;;14.25;8.80;;;20.40;93.30;;;;;;4950558;28;20035;-51
2021/05/05 11:22:26;;;;;;;21.30;9.23;;;20.40;93.30;;;;;;4956313;28;20024;-50
2021/05/05 11:24:54;;;;;;;12.80;9.02;;;20.40;93.20;;;;;;4958960;28;20478;-53
2021/05/05 11:27:51;;;;;;;17.13;11.25;;;20.40;93.10;;;;;;4955930;28;20387;-52
2021/05/05 11:30:31;;;;;;;14.18;11.13;;;20.40;93.10;;;;;;4948239;28;20024;-54
2021/05/05 11:32:59;;;;;;;17.75;11.52;;;20.40;93.00;;;;;;4955346;28;20031;-55
2021/05/05 11:35:30;;;;;;;12.90;11.60;;;20.40;93.00;;;;;;4958919;28;20035;-51
2021/05/05 11:38:19;;;;;;;13.85;11.30;;;20.40;92.90;;;;;;4960592;28;20082;-50
2021/05/05 11:40:58;;;;;;;16.88;14.20;;;20.30;92.80;;;;;;4957336;28;20035;-52
2021/05/05 11:43:27;;;;;;;15.40;13.80;;;20.30;92.90;;;;;;4948938;29;20086;-54
2021/05/05 11:45:58;;;;;;;18.35;14.95;;;20.30;92.80;;;;;;4952934;29;20058;-51
2021/05/05 11:48:30;;;;;;;17.35;15.73;;;20.30;92.80;;;;;;4947326;28;20042;-52
2021/05/05 11:50:58;;;;;;;17.75;15.38;;;20.30;92.80;;;;;;4956653;28;20043;-50
2021/05/05 11:53:34;;;;;;;16.85;14.80;;;20.30;92.80;;;;;;4955311;28;20102;-49
2021/05/05 11:56:04;;;;;;;15.55;13.95;;;20.30;92.70;;;;;;4962004;28;20384;-45
2021/05/05 11:58:32;;;;;;;15.68;13.32;;;20.30;92.70;;;;;;4952530;28;20063;-53
2021/05/05 12:00:59;;;;;;;16.35;14.57;;;20.20;92.70;;;;;;4960564;28;20035;-55
2021/05/05 12:03:27;;;;;;;16.02;14.48;;;20.30;92.70;;;;;;4955279;28;20133;-56
2021/05/05 12:05:55;;;;;;;18.95;14.20;;;20.30;92.70;;;;;;4953979;28;20031;-50
2021/05/05 12:08:27;;;;;;;17.65;14.35;;;20.20;92.60;;;;;;4950610;28;20549;-50
2021/05/05 12:11:02;;;;;;;17.67;12.93;;;20.30;92.60;;;;;;4960182;28;20039;-48
2021/05/05 12:13:40;;;;;;;16.17;13.30;;;20.20;92.60;;;;;;4961775;28;20043;-52
2021/05/05 12:16:11;;;;;;;14.07;12.63;;;20.20;92.60;;;;;;4961297;28;20480;-56
2021/05/05 12:18:58;;;;;;;17.08;13.27;;;20.20;92.60;;;;;;4953200;28;20110;-54
2021/05/05 12:21:28;;;;;;;14.15;12.63;;;20.20;92.60;;;;;;4953824;29;20106;-45
2021/05/05 12:24:00;;;;;;;14.35;12.88;;;20.10;92.50;;;;;;4961642;28;20031;-48
2021/05/05 12:26:36;;;;;;;14.98;11.82;;;20.20;92.50;;;;;;4964954;28;20050;-50
2021/05/05 12:29:08;;;;;;;14.45;11.55;;;20.20;92.50;;;;;;4952813;28;20027;-55
2021/05/05 12:31:37;;;;;;;13.88;11.68;;;20.20;92.50;;;;;;4955839;28;20043;-58
2021/05/05 12:34:08;;;;;;;12.88;11.57;;;20.20;92.50;;;;;;4955535;29;20078;-54
2021/05/05 12:36:42;;;;;;;14.13;11.80;;;20.10;92.40;;;;;;4958554;28;20069;-58
2021/05/05 12:39:19;;;;;;;12.40;10.88;;;20.10;92.40;;;;;;4955096;28;20484;-52
2021/05/05 12:41:48;;;;;;;14.00;11.45;;;20.10;92.40;;;;;;4959624;28;20065;-49
2021/05/05 12:44:16;;;;;;;11.32;10.10;;;20.10;92.40;;;;;;4955956;29;20027;-55
2021/05/05 12:46:55;;;;;;;12.27;10.40;;;20.10;92.40;;;;;;4955413;28;20031;-49
2021/05/05 12:49:40;;;;;;;11.07;9.68;;;20.10;92.40;;;;;;4952250;28;20050;-51
2021/05/05 12:52:24;;;;;;;12.35;11.05;;;20.10;92.30;;;;;;4960449;28;20049;-52
2021/05/05 12:54:52;;;;;;;10.50;8.60;;;20.10;92.30;;;;;;4954987;29;20027;-52
2021/05/05 12:57:21;;;;;;;11.10;10.00;;;20.00;92.40;;;;;;4965459;28;20037;-53
2021/05/05 12:59:51;;;;;;;10.90;9.20;;;20.00;92.40;;;;;;4951126;28;20038;-54
2021/05/05 13:02:28;;;;;;;12.55;9.40;;;20.00;92.40;;;;;;4955046;29;20083;-51